createdAt,value
2023-02-18T00:01:43.781Z,8.45
2023-02-18T00:04:12.053Z,22.35
2023-02-18T00:06:40.658Z,12.57
2023-02-18T00:09:09.386Z,9.18
2023-02-18T00:11:39.959Z,12.95
2023-02-18T00:14:13.199Z,10.80
2023-02-18T00:16:41.577Z,16.83
2023-02-18T00:19:13.836Z,10.82
2023-02-18T00:21:42.333Z,8.30
2023-02-18T00:24:11.039Z,15.40
2023-02-18T00:26:39.540Z,7.40
2023-02-18T00:29:09.138Z,3.90
2023-02-18T00:31:40.468Z,4.20
2023-02-18T00:34:08.746Z,5.15
2023-02-18T00:36:37.492Z,4.43
2023-02-18T00:39:08.330Z,9.02
2023-02-18T00:41:37.545Z,6.32
2023-02-18T00:44:06.808Z,8.55
2023-02-18T00:46:37.063Z,8.48
2023-02-18T00:49:06.514Z,6.88
2023-02-18T00:51:37.019Z,4.22
2023-02-18T00:54:05.363Z,3.45
2023-02-18T00:56:33.716Z,3.35
2023-02-18T00:59:02.117Z,11.00
2023-02-18T01:01:30.509Z,8.30
2023-02-18T01:04:00.167Z,6.13
2023-02-18T01:06:28.700Z,5.43
2023-02-18T01:08:57.541Z,4.03
2023-02-18T01:11:26.034Z,3.00
2023-02-18T01:13:54.860Z,9.20
2023-02-18T01:16:24.237Z,4.78
2023-02-18T01:18:52.609Z,7.13
2023-02-18T01:21:22.344Z,6.20
2023-02-18T01:23:50.733Z,4.93
2023-02-18T01:26:19.476Z,3.30
2023-02-18T01:28:47.710Z,7.53
2023-02-18T01:31:16.920Z,2.50
2023-02-18T01:33:45.737Z,3.40
2023-02-18T01:36:14.099Z,9.75
2023-02-18T01:38:44.016Z,3.55
2023-02-18T01:41:12.371Z,7.93
2023-02-18T01:43:41.421Z,7.63
2023-02-18T01:46:21.938Z,1.38
2023-02-18T01:48:55.414Z,1.35
2023-02-18T01:51:26.691Z,13.90
2023-02-18T01:54:01.003Z,1.52
2023-02-18T01:56:33.121Z,7.03
2023-02-18T01:59:04.250Z,5.18
2023-02-18T02:01:34.390Z,8.07
2023-02-18T02:04:03.184Z,6.07
2023-02-18T02:06:31.364Z,9.77
2023-02-18T02:09:03.535Z,4.22
2023-02-18T02:12:07.870Z,10.15
2023-02-18T02:14:55.603Z,0.40
2023-02-18T02:17:31.857Z,9.05
2023-02-18T02:20:44.755Z,4.53
2023-02-18T02:23:40.786Z,5.43
2023-02-18T02:26:46.250Z,11.15
2023-02-18T02:29:40.986Z,6.07
2023-02-18T02:32:26.873Z,2.65
2023-02-18T02:35:03.192Z,5.13
2023-02-18T02:37:41.665Z,5.28
2023-02-18T02:40:21.695Z,4.95
2023-02-18T02:43:03.308Z,2.92
2023-02-18T02:45:43.486Z,7.20
2023-02-18T02:48:18.495Z,1.60
2023-02-18T02:50:55.891Z,5.93
2023-02-18T02:53:28.033Z,2.75
2023-02-18T02:55:56.381Z,9.93
2023-02-18T02:58:26.118Z,5.90
2023-02-18T03:01:30.836Z,2.80
2023-02-18T03:04:36.624Z,6.03
2023-02-18T03:07:20.662Z,2.63
2023-02-18T03:10:11.401Z,3.17
2023-02-18T03:12:48.375Z,4.97
2023-02-18T03:15:23.820Z,9.40
2023-02-18T03:20:28.336Z,3.75
2023-02-18T03:23:04.224Z,7.95
2023-02-18T03:25:34.810Z,4.77
2023-02-18T03:28:08.110Z,16.70
2023-02-18T03:30:41.730Z,4.13
2023-02-18T03:33:15.427Z,2.97
2023-02-18T03:35:45.760Z,4.68
2023-02-18T03:38:19.446Z,9.05
2023-02-18T03:40:48.064Z,5.80
2023-02-18T03:43:16.691Z,9.10
2023-02-18T03:45:45.395Z,6.97
2023-02-18T03:48:13.690Z,4.53
2023-02-18T03:51:06.920Z,1.38
2023-02-18T03:53:36.790Z,1.05
2023-02-18T03:56:05.544Z,8.65
2023-02-18T03:58:34.097Z,9.35
2023-02-18T04:01:02.445Z,8.48
2023-02-18T04:03:30.945Z,9.90
2023-02-18T04:05:59.268Z,5.40
2023-02-18T04:08:27.909Z,9.15
2023-02-18T04:10:57.478Z,3.78
2023-02-18T04:13:26.069Z,12.68
2023-02-18T04:15:54.297Z,11.25
2023-02-18T04:18:22.553Z,3.78
2023-02-18T04:20:51.091Z,3.22
2023-02-18T04:23:19.311Z,11.00
2023-02-18T04:25:47.527Z,7.60
2023-02-18T04:28:18.415Z,6.00
2023-02-18T04:30:49.063Z,5.10
2023-02-18T04:33:17.824Z,4.93
2023-02-18T04:35:46.033Z,7.75
2023-02-18T04:38:15.008Z,6.80
2023-02-18T04:40:43.218Z,9.88
2023-02-18T04:43:11.568Z,11.45
2023-02-18T04:45:41.428Z,9.77
2023-02-18T04:48:10.223Z,11.00
2023-02-18T04:50:38.610Z,9.18
2023-02-18T04:53:07.269Z,19.98
2023-02-18T04:55:35.753Z,11.80
2023-02-18T04:58:03.989Z,5.10
2023-02-18T05:00:32.198Z,6.18
2023-02-18T05:03:02.178Z,16.75
2023-02-18T05:05:30.289Z,6.38
2023-02-18T05:07:58.790Z,15.02
2023-02-18T05:10:26.955Z,8.93
2023-02-18T05:12:55.606Z,18.20
2023-02-18T05:15:23.795Z,7.15
2023-02-18T05:17:51.959Z,17.50
2023-02-18T05:20:21.888Z,7.60
2023-02-18T05:22:50.337Z,13.07
2023-02-18T05:25:19.020Z,12.55
2023-02-18T05:27:47.541Z,13.98
2023-02-18T05:30:16.119Z,10.52
2023-02-18T05:32:44.373Z,11.80
2023-02-18T05:35:13.705Z,11.02
2023-02-18T05:37:43.669Z,14.43
2023-02-18T05:40:12.941Z,12.52
2023-02-18T05:42:41.114Z,13.48
2023-02-18T05:45:10.526Z,15.52
2023-02-18T05:47:38.740Z,19.08
2023-02-18T05:50:08.635Z,14.45
2023-02-18T05:52:37.355Z,10.05
2023-02-18T05:55:07.694Z,11.77
2023-02-18T05:57:35.923Z,6.85
2023-02-18T06:00:04.620Z,15.63
2023-02-18T06:02:33.003Z,14.30
2023-02-18T06:05:01.500Z,16.85
2023-02-18T06:07:30.106Z,12.45
2023-02-18T06:09:58.923Z,14.75
2023-02-18T06:12:28.593Z,16.20
2023-02-18T06:14:57.156Z,18.15
2023-02-18T06:17:25.339Z,14.25
2023-02-18T06:19:53.844Z,16.85
2023-02-18T06:22:22.469Z,14.88
2023-02-18T06:24:50.654Z,21.35
2023-02-18T06:27:18.859Z,15.35
2023-02-18T06:29:48.435Z,16.95
2023-02-18T06:32:16.724Z,14.63
2023-02-18T06:34:45.593Z,24.77
2023-02-18T06:37:13.763Z,21.63
2023-02-18T06:39:42.381Z,21.33
2023-02-18T06:42:10.621Z,17.20
2023-02-18T06:44:39.197Z,21.05
2023-02-18T06:47:08.804Z,19.15
2023-02-18T06:49:38.960Z,18.67
2023-02-18T06:52:07.588Z,19.63
2023-02-18T06:54:36.201Z,16.42
2023-02-18T06:57:04.501Z,17.40
2023-02-18T06:59:33.054Z,26.25
2023-02-18T07:02:01.199Z,22.80
2023-02-18T07:04:30.827Z,20.58
2023-02-18T07:06:59.315Z,15.40
2023-02-18T07:09:27.588Z,20.38
2023-02-18T07:11:55.800Z,17.88
2023-02-18T07:14:24.898Z,12.13
2023-02-18T07:16:53.436Z,16.08
2023-02-18T07:19:21.620Z,14.10
2023-02-18T07:21:51.917Z,14.65
2023-02-18T07:24:20.098Z,17.85
2023-02-18T07:26:48.287Z,12.93
2023-02-18T07:29:16.704Z,11.23
2023-02-18T07:31:45.413Z,12.43
2023-02-18T07:34:13.671Z,14.15
2023-02-18T07:36:42.426Z,18.77
2023-02-18T07:39:12.424Z,13.77
2023-02-18T07:41:41.048Z,9.70
2023-02-18T07:44:16.673Z,9.93
2023-02-18T07:46:47.285Z,12.90
2023-02-18T07:49:17.230Z,12.70
2023-02-18T07:51:48.515Z,10.05
2023-02-18T07:54:18.559Z,8.98
2023-02-18T07:56:47.441Z,11.80
2023-02-18T07:59:16.140Z,15.82
2023-02-18T08:01:45.204Z,11.73
2023-02-18T08:04:15.364Z,11.60
2023-02-18T08:06:46.757Z,12.35
2023-02-18T08:09:15.704Z,10.52
2023-02-18T08:11:45.624Z,6.75
2023-02-18T08:14:14.202Z,7.40
2023-02-18T08:16:42.490Z,6.10
2023-02-18T08:19:10.717Z,11.70
2023-02-18T08:21:38.973Z,5.63
2023-02-18T08:24:08.303Z,4.97
2023-02-18T08:26:36.616Z,3.45
2023-02-18T08:29:06.568Z,4.53
2023-02-18T08:31:35.154Z,3.38
2023-02-18T08:34:04.764Z,2.90
2023-02-18T08:36:33.022Z,2.88
2023-02-18T08:39:01.640Z,3.13
2023-02-18T08:41:29.914Z,2.10
2023-02-18T08:43:58.540Z,1.33
2023-02-18T08:46:35.305Z,0.93
2023-02-18T08:49:05.417Z,1.52
2023-02-18T08:51:33.708Z,2.13
2023-02-18T08:54:02.404Z,8.48
2023-02-18T08:56:31.711Z,4.60
2023-02-18T08:59:00.552Z,0.45
2023-02-18T09:01:30.191Z,0.85
2023-02-18T09:03:58.520Z,1.38
2023-02-18T09:06:26.897Z,1.25
2023-02-18T09:08:55.237Z,1.17
2023-02-18T09:11:23.557Z,1.42
2023-02-18T09:13:51.733Z,4.07
2023-02-18T09:16:20.739Z,2.65
2023-02-18T09:18:50.550Z,2.28
2023-02-18T09:21:20.777Z,2.38
2023-02-18T09:23:49.309Z,0.47
2023-02-18T09:26:21.305Z,1.30
2023-02-18T09:28:50.333Z,1.00
2023-02-18T09:31:20.512Z,1.85
2023-02-18T09:33:52.713Z,1.45
2023-02-18T09:36:21.563Z,0.35
2023-02-18T09:38:50.143Z,1.15
2023-02-18T09:41:31.233Z,0.47
2023-02-18T09:44:03.037Z,0.60
2023-02-18T09:46:35.570Z,1.55
2023-02-18T09:49:15.745Z,1.25
2023-02-18T09:51:47.764Z,0.43
2023-02-18T09:54:21.930Z,0.43
2023-02-18T09:56:51.236Z,0.40
2023-02-18T09:59:22.173Z,0.40
2023-02-18T10:01:53.477Z,2.20
2023-02-18T10:04:26.068Z,0.10
2023-02-18T10:06:55.702Z,1.73
2023-02-18T10:09:26.814Z,0.45
2023-02-18T10:11:59.016Z,1.73
2023-02-18T10:14:27.667Z,0.30
2023-02-18T10:16:56.168Z,1.15
2023-02-18T10:19:31.378Z,12.73
2023-02-18T10:22:02.110Z,0.28
2023-02-18T10:24:34.032Z,0.38
2023-02-18T10:27:05.288Z,0.38
2023-02-18T10:29:34.006Z,0.55
2023-02-18T10:32:08.857Z,0.20
2023-02-18T10:34:49.765Z,0.43
2023-02-18T10:37:44.801Z,0.30
2023-02-18T10:40:20.181Z,0.20
2023-02-18T10:45:34.434Z,0.20
2023-02-18T10:48:15.816Z,0.28
2023-02-18T10:50:47.072Z,0.65
2023-02-18T10:53:20.158Z,0.43
2023-02-18T10:55:50.384Z,0.28
2023-02-18T10:58:32.764Z,0.20
2023-02-18T11:01:05.018Z,0.10
2023-02-18T11:03:45.086Z,0.00
2023-02-18T11:06:26.177Z,0.00
2023-02-18T11:08:56.662Z,0.00
2023-02-18T11:11:28.256Z,0.30
2023-02-18T11:13:58.819Z,0.28
2023-02-18T11:16:39.284Z,0.13
2023-02-18T11:19:37.300Z,0.40
2023-02-18T11:22:16.918Z,0.38
2023-02-18T11:24:48.827Z,0.03
2023-02-18T11:27:24.854Z,0.10
2023-02-18T11:29:56.823Z,3.70
2023-02-18T11:32:28.919Z,0.57
2023-02-18T11:34:57.744Z,2.70
2023-02-18T11:37:27.548Z,0.10
2023-02-18T11:39:57.587Z,0.10
2023-02-18T11:42:28.235Z,0.30
2023-02-18T11:44:59.428Z,0.28
2023-02-18T11:47:31.764Z,0.00
2023-02-18T11:50:18.712Z,0.32
2023-02-18T11:52:50.308Z,0.40
2023-02-18T11:55:21.427Z,2.53
2023-02-18T11:57:56.667Z,0.68
2023-02-18T12:00:34.496Z,0.15
2023-02-18T12:03:09.075Z,0.20
2023-02-18T12:05:39.061Z,2.83
2023-02-18T12:08:15.618Z,2.72
2023-02-18T12:10:52.102Z,0.00
2023-02-18T12:13:27.180Z,1.15
2023-02-18T12:16:05.407Z,0.55
2023-02-18T12:19:11.225Z,1.98
2023-02-18T12:21:50.775Z,0.90
2023-02-18T12:24:35.175Z,0.28
2023-02-18T12:27:13.237Z,0.00
2023-02-18T12:30:02.668Z,4.03
2023-02-18T12:32:43.732Z,0.52
2023-02-18T12:35:30.671Z,0.20
2023-02-18T12:38:12.449Z,0.00
2023-02-18T12:41:15.665Z,0.10
2023-02-18T12:43:54.447Z,0.47
2023-02-18T12:46:34.328Z,0.17
2023-02-18T12:49:15.884Z,0.32
2023-02-18T12:51:56.687Z,1.90
2023-02-18T12:54:41.692Z,2.95
2023-02-18T12:57:31.973Z,0.55
2023-02-18T13:00:32.784Z,0.15
2023-02-18T13:03:47.240Z,2.25
2023-02-18T13:06:29.375Z,0.43
2023-02-18T13:09:09.373Z,0.00
2023-02-18T13:11:48.448Z,1.38
2023-02-18T13:14:23.543Z,0.45
2023-02-18T13:16:56.487Z,0.10
2023-02-18T13:19:28.450Z,0.10
2023-02-18T13:22:02.763Z,1.08
2023-02-18T13:24:35.344Z,0.88
2023-02-18T13:27:11.998Z,0.32
2023-02-18T13:29:49.629Z,0.22
2023-02-18T13:32:25.916Z,0.20
2023-02-18T13:35:00.119Z,0.28
2023-02-18T13:37:36.755Z,0.75
2023-02-18T13:40:05.885Z,1.45
2023-02-18T13:42:38.932Z,0.40
2023-02-18T13:45:28.336Z,0.40
2023-02-18T13:47:57.611Z,6.65
2023-02-18T13:50:30.482Z,1.33
2023-02-18T13:53:21.996Z,0.38
2023-02-18T13:56:01.442Z,1.20
2023-02-18T13:58:37.772Z,1.95
2023-02-18T14:01:14.790Z,0.45
2023-02-18T14:03:56.124Z,0.10
2023-02-18T14:06:27.058Z,0.50
2023-02-18T14:09:23.344Z,1.55
2023-02-18T14:11:57.808Z,0.38
2023-02-18T14:14:39.650Z,0.57
2023-02-18T14:17:33.750Z,1.60
2023-02-18T14:20:32.603Z,0.50
2023-02-18T14:23:01.632Z,0.10
2023-02-18T14:25:38.340Z,0.95
2023-02-18T14:28:44.877Z,4.15
2023-02-18T14:31:34.584Z,0.98
2023-02-18T14:34:52.943Z,0.57
2023-02-18T14:37:48.062Z,0.10
2023-02-18T14:40:37.169Z,3.80
2023-02-18T14:43:13.469Z,1.30
2023-02-18T14:46:05.192Z,0.90
2023-02-18T14:49:10.236Z,0.15
2023-02-18T14:51:41.806Z,0.22
2023-02-18T14:54:15.502Z,3.97
2023-02-18T14:56:54.131Z,0.75
2023-02-18T14:59:25.159Z,1.65
2023-02-18T15:01:55.886Z,0.45
2023-02-18T15:04:26.391Z,2.30
2023-02-18T15:07:05.418Z,0.13
2023-02-18T15:09:33.961Z,9.10
2023-02-18T15:12:05.692Z,2.92
2023-02-18T15:14:37.843Z,3.92
2023-02-18T15:17:08.398Z,1.35
2023-02-18T15:19:40.612Z,0.43
2023-02-18T15:22:18.743Z,4.53
2023-02-18T15:24:47.469Z,0.52
2023-02-18T15:27:17.972Z,0.13
2023-02-18T15:29:50.313Z,0.85
2023-02-18T15:32:21.416Z,0.77
2023-02-18T15:34:52.077Z,0.38
2023-02-18T15:37:22.385Z,0.40
2023-02-18T15:39:51.023Z,0.43
2023-02-18T15:42:27.129Z,0.30
2023-02-18T15:44:58.607Z,0.60
2023-02-18T15:47:27.476Z,5.55
2023-02-18T15:49:59.138Z,0.30
2023-02-18T15:52:32.006Z,4.63
2023-02-18T15:55:04.640Z,0.10
2023-02-18T15:57:35.596Z,0.45
2023-02-18T16:00:13.880Z,0.20
2023-02-18T16:02:54.140Z,5.68
2023-02-18T16:05:27.236Z,0.63
2023-02-18T16:08:00.993Z,0.47
2023-02-18T16:10:50.332Z,0.32
2023-02-18T16:13:19.508Z,0.57
2023-02-18T16:15:50.057Z,1.33
2023-02-18T16:18:31.981Z,0.73
2023-02-18T16:21:03.224Z,2.30
2023-02-18T16:23:43.808Z,0.20
2023-02-18T16:26:24.325Z,0.20
2023-02-18T16:28:54.421Z,0.65
2023-02-18T16:31:23.260Z,1.92
2023-02-18T16:33:52.148Z,0.60
2023-02-18T16:36:22.684Z,0.47
2023-02-18T16:38:52.728Z,0.73
2023-02-18T16:41:20.994Z,3.28
2023-02-18T16:43:50.811Z,0.80
2023-02-18T16:46:23.228Z,2.75
2023-02-18T16:48:55.249Z,0.68
2023-02-18T16:51:25.917Z,0.52
2023-02-18T16:53:55.776Z,2.35
2023-02-18T16:56:25.697Z,1.58
2023-02-18T16:58:54.485Z,1.13
2023-02-18T17:01:26.810Z,1.75
2023-02-18T17:03:55.913Z,0.73
2023-02-18T17:06:24.376Z,1.40
2023-02-18T17:08:53.225Z,4.72
2023-02-18T17:11:25.898Z,1.90
2023-02-18T17:13:55.160Z,2.22
2023-02-18T17:16:23.889Z,1.95
2023-02-18T17:18:52.624Z,1.27
2023-02-18T17:21:23.072Z,0.85
2023-02-18T17:23:53.406Z,0.57
2023-02-18T17:26:25.848Z,7.97
2023-02-18T17:28:55.274Z,1.73
2023-02-18T17:31:27.530Z,1.75
2023-02-18T17:33:57.413Z,2.00
2023-02-18T17:36:25.963Z,2.25
2023-02-18T17:38:54.836Z,1.67
2023-02-18T17:41:24.442Z,1.58
2023-02-18T17:43:53.132Z,1.20
2023-02-18T17:46:22.156Z,0.63
2023-02-18T17:48:51.019Z,0.90
2023-02-18T17:51:24.702Z,1.20
2023-02-18T17:53:53.831Z,1.77
2023-02-18T17:56:22.420Z,5.25
2023-02-18T17:58:52.361Z,1.02
2023-02-18T18:01:21.239Z,2.70
2023-02-18T18:03:50.252Z,2.17
2023-02-18T18:06:21.226Z,0.85
2023-02-18T18:08:50.549Z,1.65
2023-02-18T18:11:21.449Z,1.90
2023-02-18T18:13:52.868Z,2.50
2023-02-18T18:16:21.563Z,3.33
2023-02-18T18:18:51.722Z,0.60
2023-02-18T18:21:24.030Z,1.75
2023-02-18T18:23:52.795Z,6.68
2023-02-18T18:26:20.998Z,3.28
2023-02-18T18:28:49.350Z,1.23
2023-02-18T18:31:20.911Z,1.17
2023-02-18T18:33:53.127Z,2.05
2023-02-18T18:36:24.165Z,1.25
2023-02-18T18:38:53.452Z,2.03
2023-02-18T18:41:23.579Z,1.65
2023-02-18T18:43:52.135Z,1.27
2023-02-18T18:46:24.991Z,0.75
2023-02-18T18:49:03.675Z,1.17
2023-02-18T18:51:33.735Z,1.83
2023-02-18T18:54:01.989Z,1.38
2023-02-18T18:56:30.744Z,3.63
2023-02-18T18:58:59.193Z,2.97
2023-02-18T19:01:29.279Z,2.50
2023-02-18T19:03:58.005Z,1.35
2023-02-18T19:06:26.696Z,2.80
2023-02-18T19:08:54.887Z,1.98
2023-02-18T19:11:23.122Z,3.33
2023-02-18T19:13:51.413Z,2.45
2023-02-18T19:16:22.688Z,1.60
2023-02-18T19:18:52.981Z,1.58
2023-02-18T19:21:21.566Z,2.53
2023-02-18T19:23:50.119Z,1.27
2023-02-18T19:26:18.384Z,1.13
2023-02-18T19:28:46.984Z,1.70
2023-02-18T19:31:16.202Z,5.93
2023-02-18T19:33:46.894Z,1.08
2023-02-18T19:36:16.879Z,5.38
2023-02-18T19:38:46.638Z,1.60
2023-02-18T19:41:16.926Z,3.17
2023-02-18T19:43:46.644Z,1.35
2023-02-18T19:46:17.501Z,1.48
2023-02-18T19:48:49.357Z,0.88
2023-02-18T19:51:19.609Z,1.75
2023-02-18T19:53:47.924Z,1.33
2023-02-18T19:56:16.332Z,1.80
2023-02-18T19:58:44.675Z,5.00
2023-02-18T20:01:14.060Z,2.85
2023-02-18T20:03:42.897Z,4.80
2023-02-18T20:06:16.479Z,1.77
2023-02-18T20:08:46.443Z,4.97
2023-02-18T20:11:15.039Z,1.92
2023-02-18T20:13:43.221Z,4.18
2023-02-18T20:16:12.789Z,3.08
2023-02-18T20:18:41.207Z,4.03
2023-02-18T20:21:12.599Z,2.63
2023-02-18T20:23:41.015Z,5.07
2023-02-18T20:26:12.099Z,4.43
2023-02-18T20:28:40.660Z,3.95
2023-02-18T20:31:11.406Z,3.67
2023-02-18T20:33:40.048Z,4.82
2023-02-18T20:36:08.727Z,3.15
2023-02-18T20:38:38.460Z,2.47
2023-02-18T20:41:07.814Z,2.97
2023-02-18T20:43:37.585Z,5.93
2023-02-18T20:46:08.470Z,5.70
2023-02-18T20:48:37.861Z,5.95
2023-02-18T20:51:06.862Z,3.55
2023-02-18T20:53:36.664Z,5.50
2023-02-18T20:56:05.928Z,4.18
2023-02-18T20:58:34.942Z,6.35
2023-02-18T21:01:06.205Z,2.80
2023-02-18T21:03:35.213Z,2.35
2023-02-18T21:06:06.488Z,8.32
2023-02-18T21:08:38.672Z,5.47
2023-02-18T21:11:10.856Z,2.45
2023-02-18T21:13:40.523Z,2.20
2023-02-18T21:16:11.012Z,2.40
2023-02-18T21:18:39.738Z,3.05
2023-02-18T21:21:10.108Z,3.95
2023-02-18T21:23:39.559Z,2.35
2023-02-18T21:26:09.979Z,5.53
2023-02-18T21:28:39.582Z,4.00
2023-02-18T21:31:18.091Z,4.05
2023-02-18T21:33:46.540Z,6.10
2023-02-18T21:36:15.339Z,5.57
2023-02-18T21:38:44.820Z,4.78
2023-02-18T21:41:13.763Z,5.43
2023-02-18T21:43:45.984Z,7.05
2023-02-18T21:46:21.374Z,5.65
2023-02-18T21:49:09.643Z,4.72
2023-02-18T21:52:00.512Z,6.90
2023-02-18T21:54:31.588Z,3.35
2023-02-18T21:57:01.239Z,5.05
2023-02-18T21:59:30.947Z,6.40
2023-02-18T22:02:01.054Z,4.13
2023-02-18T22:04:30.747Z,7.05
2023-02-18T22:07:00.110Z,3.30
2023-02-18T22:09:28.353Z,2.30
2023-02-18T22:11:56.993Z,4.75
2023-02-18T22:14:25.589Z,5.25
2023-02-18T22:16:54.255Z,3.40
2023-02-18T22:19:24.272Z,3.25
2023-02-18T22:21:52.605Z,6.00
2023-02-18T22:24:21.302Z,6.43
2023-02-18T22:26:50.474Z,10.75
2023-02-18T22:29:20.771Z,5.15
2023-02-18T22:31:53.413Z,6.40
2023-02-18T22:34:24.195Z,7.85
2023-02-18T22:36:52.553Z,8.15
2023-02-18T22:39:20.845Z,8.55
2023-02-18T22:41:49.125Z,10.82
2023-02-18T22:44:19.042Z,8.98
2023-02-18T22:46:47.390Z,5.97
2023-02-18T22:49:15.856Z,9.70
2023-02-18T22:51:46.180Z,13.57
2023-02-18T22:54:16.543Z,7.55
2023-02-18T22:56:45.711Z,10.25
2023-02-18T22:59:16.003Z,10.82
2023-02-18T23:01:49.340Z,6.63
2023-02-18T23:04:20.398Z,11.73
2023-02-18T23:06:51.368Z,8.35
2023-02-18T23:09:22.730Z,6.30
2023-02-18T23:11:53.041Z,5.45
2023-02-18T23:14:22.497Z,17.50
2023-02-18T23:17:10.593Z,5.57
2023-02-18T23:19:41.219Z,6.05
2023-02-18T23:22:12.049Z,4.35
2023-02-18T23:24:42.409Z,4.72
2023-02-18T23:27:12.021Z,2.55
2023-02-18T23:29:40.776Z,2.85
2023-02-18T23:32:09.944Z,5.30
2023-02-18T23:34:38.865Z,3.80
2023-02-18T23:37:07.483Z,3.00
2023-02-18T23:39:37.535Z,10.77
2023-02-18T23:42:05.868Z,8.00
2023-02-18T23:44:34.402Z,11.10
2023-02-18T23:47:02.825Z,6.97
2023-02-18T23:49:31.154Z,4.22
2023-02-18T23:51:59.403Z,4.57
2023-02-18T23:54:27.696Z,5.45
2023-02-18T23:56:57.335Z,3.50
2023-02-18T23:59:25.576Z,11.95
